sensor_id;sensor_type;location;lat;lon;timestamp;P1;durP1;ratioP1;P2;durP2;ratioP2
62523;SDS011;53689;56.878;60.672;2022-12-29T00:00:22;26.40;;;17.02;;
62523;SDS011;53689;56.878;60.672;2022-12-29T00:02:51;20.65;;;14.80;;
62523;SDS011;53689;56.878;60.672;2022-12-29T00:05:19;23.58;;;15.15;;
62523;SDS011;53689;56.878;60.672;2022-12-29T00:07:46;24.80;;;16.33;;
62523;SDS011;53689;56.878;60.672;2022-12-29T00:10:14;26.67;;;16.95;;
62523;SDS011;53689;56.878;60.672;2022-12-29T00:12:42;24.25;;;15.65;;
62523;SDS011;53689;56.878;60.672;2022-12-29T00:15:10;23.33;;;16.02;;
62523;SDS011;53689;56.878;60.672;2022-12-29T00:17:37;23.08;;;15.10;;
62523;SDS011;53689;56.878;60.672;2022-12-29T00:20:07;21.35;;;15.48;;
62523;SDS011;53689;56.878;60.672;2022-12-29T00:22:35;23.10;;;15.20;;
62523;SDS011;53689;56.878;60.672;2022-12-29T00:25:03;26.73;;;16.35;;
62523;SDS011;53689;56.878;60.672;2022-12-29T00:27:31;22.95;;;15.93;;
62523;SDS011;53689;56.878;60.672;2022-12-29T00:29:59;26.42;;;16.85;;
62523;SDS011;53689;56.878;60.672;2022-12-29T00:32:26;22.25;;;15.38;;
62523;SDS011;53689;56.878;60.672;2022-12-29T00:34:54;21.13;;;14.38;;
62523;SDS011;53689;56.878;60.672;2022-12-29T00:37:23;23.88;;;15.18;;
62523;SDS011;53689;56.878;60.672;2022-12-29T00:39:50;23.17;;;16.83;;
62523;SDS011;53689;56.878;60.672;2022-12-29T00:42:18;22.92;;;14.88;;
62523;SDS011;53689;56.878;60.672;2022-12-29T00:44:45;23.75;;;15.80;;
62523;SDS011;53689;56.878;60.672;2022-12-29T00:47:13;23.98;;;16.13;;
62523;SDS011;53689;56.878;60.672;2022-12-29T00:49:41;26.48;;;16.73;;
62523;SDS011;53689;56.878;60.672;2022-12-29T00:52:09;23.75;;;16.50;;
62523;SDS011;53689;56.878;60.672;2022-12-29T00:54:40;23.33;;;16.00;;
62523;SDS011;53689;56.878;60.672;2022-12-29T00:57:08;22.83;;;14.32;;
62523;SDS011;53689;56.878;60.672;2022-12-29T00:59:36;25.67;;;15.73;;
62523;SDS011;53689;56.878;60.672;2022-12-29T01:02:04;25.42;;;15.50;;
62523;SDS011;53689;56.878;60.672;2022-12-29T01:04:33;22.48;;;14.90;;
62523;SDS011;53689;56.878;60.672;2022-12-29T01:07:01;27.02;;;17.63;;
62523;SDS011;53689;56.878;60.672;2022-12-29T01:09:28;23.23;;;15.82;;
62523;SDS011;53689;56.878;60.672;2022-12-29T01:11:57;23.92;;;16.20;;
62523;SDS011;53689;56.878;60.672;2022-12-29T01:14:25;23.77;;;16.02;;
62523;SDS011;53689;56.878;60.672;2022-12-29T01:16:53;26.45;;;16.67;;
62523;SDS011;53689;56.878;60.672;2022-12-29T01:19:22;23.35;;;15.43;;
62523;SDS011;53689;56.878;60.672;2022-12-29T01:21:50;26.40;;;16.80;;
62523;SDS011;53689;56.878;60.672;2022-12-29T01:24:18;30.25;;;17.23;;
62523;SDS011;53689;56.878;60.672;2022-12-29T01:26:47;29.33;;;18.33;;
62523;SDS011;53689;56.878;60.672;2022-12-29T01:29:17;25.00;;;15.93;;
62523;SDS011;53689;56.878;60.672;2022-12-29T01:31:45;31.58;;;17.95;;
62523;SDS011;53689;56.878;60.672;2022-12-29T01:34:13;26.35;;;16.50;;
62523;SDS011;53689;56.878;60.672;2022-12-29T01:36:41;30.05;;;17.35;;
62523;SDS011;53689;56.878;60.672;2022-12-29T01:39:10;32.55;;;18.23;;
62523;SDS011;53689;56.878;60.672;2022-12-29T01:41:40;26.33;;;16.85;;
62523;SDS011;53689;56.878;60.672;2022-12-29T01:47:25;29.27;;;17.65;;
62523;SDS011;53689;56.878;60.672;2022-12-29T01:49:58;29.13;;;16.60;;
62523;SDS011;53689;56.878;60.672;2022-12-29T01:52:29;26.42;;;16.77;;
62523;SDS011;53689;56.878;60.672;2022-12-29T01:55:00;29.27;;;17.30;;
62523;SDS011;53689;56.878;60.672;2022-12-29T01:57:30;28.17;;;17.02;;
62523;SDS011;53689;56.878;60.672;2022-12-29T02:00:02;28.30;;;16.45;;
62523;SDS011;53689;56.878;60.672;2022-12-29T02:02:39;26.20;;;16.65;;
62523;SDS011;53689;56.878;60.672;2022-12-29T02:05:09;26.73;;;16.67;;
62523;SDS011;53689;56.878;60.672;2022-12-29T02:07:43;28.48;;;16.50;;
62523;SDS011;53689;56.878;60.672;2022-12-29T02:10:12;29.50;;;17.58;;
62523;SDS011;53689;56.878;60.672;2022-12-29T02:12:41;26.20;;;17.20;;
62523;SDS011;53689;56.878;60.672;2022-12-29T02:15:08;25.95;;;15.85;;
62523;SDS011;53689;56.878;60.672;2022-12-29T02:17:51;28.42;;;16.70;;
62523;SDS011;53689;56.878;60.672;2022-12-29T02:20:37;25.98;;;15.60;;
62523;SDS011;53689;56.878;60.672;2022-12-29T02:26:29;23.83;;;15.63;;
62523;SDS011;53689;56.878;60.672;2022-12-29T02:29:16;23.65;;;15.13;;
62523;SDS011;53689;56.878;60.672;2022-12-29T02:32:02;28.52;;;17.33;;
62523;SDS011;53689;56.878;60.672;2022-12-29T02:34:38;26.80;;;16.67;;
62523;SDS011;53689;56.878;60.672;2022-12-29T02:37:17;25.42;;;15.68;;
62523;SDS011;53689;56.878;60.672;2022-12-29T02:39:50;25.10;;;15.95;;
62523;SDS011;53689;56.878;60.672;2022-12-29T02:42:24;28.83;;;16.00;;
62523;SDS011;53689;56.878;60.672;2022-12-29T02:45:02;25.05;;;16.10;;
62523;SDS011;53689;56.878;60.672;2022-12-29T02:47:36;22.80;;;14.75;;
62523;SDS011;53689;56.878;60.672;2022-12-29T02:50:12;25.80;;;15.93;;
62523;SDS011;53689;56.878;60.672;2022-12-29T02:52:45;22.17;;;15.30;;
62523;SDS011;53689;56.878;60.672;2022-12-29T02:55:18;25.77;;;15.25;;
62523;SDS011;53689;56.878;60.672;2022-12-29T03:00:16;24.65;;;14.65;;
62523;SDS011;53689;56.878;60.672;2022-12-29T03:05:51;27.75;;;17.15;;
62523;SDS011;53689;56.878;60.672;2022-12-29T03:08:32;26.42;;;16.67;;
62523;SDS011;53689;56.878;60.672;2022-12-29T03:11:09;32.65;;;18.60;;
62523;SDS011;53689;56.878;60.672;2022-12-29T03:13:42;28.77;;;16.63;;
62523;SDS011;53689;56.878;60.672;2022-12-29T03:16:15;22.55;;;16.58;;
62523;SDS011;53689;56.878;60.672;2022-12-29T03:18:54;24.75;;;16.65;;
62523;SDS011;53689;56.878;60.672;2022-12-29T03:21:29;22.45;;;15.63;;
62523;SDS011;53689;56.878;60.672;2022-12-29T03:24:04;25.40;;;16.40;;
62523;SDS011;53689;56.878;60.672;2022-12-29T03:26:33;23.25;;;15.60;;
62523;SDS011;53689;56.878;60.672;2022-12-29T03:29:02;22.65;;;15.65;;
62523;SDS011;53689;56.878;60.672;2022-12-29T03:31:31;22.25;;;16.08;;
62523;SDS011;53689;56.878;60.672;2022-12-29T03:34:00;25.38;;;17.05;;
62523;SDS011;53689;56.878;60.672;2022-12-29T03:39:15;22.00;;;16.25;;
62523;SDS011;53689;56.878;60.672;2022-12-29T03:41:47;25.50;;;17.00;;
62523;SDS011;53689;56.878;60.672;2022-12-29T03:44:22;24.10;;;15.98;;
62523;SDS011;53689;56.878;60.672;2022-12-29T03:46:59;22.27;;;16.38;;
62523;SDS011;53689;56.878;60.672;2022-12-29T03:49:29;27.83;;;16.63;;
62523;SDS011;53689;56.878;60.672;2022-12-29T03:51:56;24.65;;;16.05;;
62523;SDS011;53689;56.878;60.672;2022-12-29T03:54:25;20.20;;;14.55;;
62523;SDS011;53689;56.878;60.672;2022-12-29T03:56:52;21.58;;;15.60;;
62523;SDS011;53689;56.878;60.672;2022-12-29T03:59:31;23.73;;;14.02;;
62523;SDS011;53689;56.878;60.672;2022-12-29T04:02:00;22.90;;;15.35;;
62523;SDS011;53689;56.878;60.672;2022-12-29T04:04:29;21.63;;;14.73;;
62523;SDS011;53689;56.878;60.672;2022-12-29T04:06:57;23.85;;;15.95;;
62523;SDS011;53689;56.878;60.672;2022-12-29T04:09:25;22.98;;;15.73;;
62523;SDS011;53689;56.878;60.672;2022-12-29T04:11:53;21.63;;;14.32;;
62523;SDS011;53689;56.878;60.672;2022-12-29T04:14:21;21.30;;;15.32;;
62523;SDS011;53689;56.878;60.672;2022-12-29T04:16:49;22.92;;;14.52;;
62523;SDS011;53689;56.878;60.672;2022-12-29T04:19:16;18.75;;;12.63;;
62523;SDS011;53689;56.878;60.672;2022-12-29T04:21:46;23.75;;;15.45;;
62523;SDS011;53689;56.878;60.672;2022-12-29T04:24:14;24.70;;;16.70;;
62523;SDS011;53689;56.878;60.672;2022-12-29T04:26:45;17.50;;;13.18;;
62523;SDS011;53689;56.878;60.672;2022-12-29T04:29:35;21.70;;;14.70;;
62523;SDS011;53689;56.878;60.672;2022-12-29T04:32:21;22.70;;;14.50;;
62523;SDS011;53689;56.878;60.672;2022-12-29T04:34:52;20.83;;;14.60;;
62523;SDS011;53689;56.878;60.672;2022-12-29T04:37:21;21.70;;;15.20;;
62523;SDS011;53689;56.878;60.672;2022-12-29T04:39:48;23.70;;;15.50;;
62523;SDS011;53689;56.878;60.672;2022-12-29T04:42:16;19.98;;;13.35;;
62523;SDS011;53689;56.878;60.672;2022-12-29T04:44:44;20.50;;;13.88;;
62523;SDS011;53689;56.878;60.672;2022-12-29T04:47:32;24.70;;;15.02;;
62523;SDS011;53689;56.878;60.672;2022-12-29T04:50:23;19.40;;;13.00;;
62523;SDS011;53689;56.878;60.672;2022-12-29T04:53:06;21.95;;;13.52;;
62523;SDS011;53689;56.878;60.672;2022-12-29T04:55:34;21.25;;;12.80;;
62523;SDS011;53689;56.878;60.672;2022-12-29T04:58:02;22.38;;;13.07;;
62523;SDS011;53689;56.878;60.672;2022-12-29T05:00:32;24.13;;;13.82;;
62523;SDS011;53689;56.878;60.672;2022-12-29T05:03:00;24.65;;;14.57;;
62523;SDS011;53689;56.878;60.672;2022-12-29T05:05:29;30.70;;;13.67;;
62523;SDS011;53689;56.878;60.672;2022-12-29T05:07:57;27.70;;;14.13;;
62523;SDS011;53689;56.878;60.672;2022-12-29T05:10:27;24.03;;;14.73;;
62523;SDS011;53689;56.878;60.672;2022-12-29T05:12:58;23.60;;;14.07;;
62523;SDS011;53689;56.878;60.672;2022-12-29T05:15:26;27.38;;;14.73;;
62523;SDS011;53689;56.878;60.672;2022-12-29T05:17:54;24.92;;;14.32;;
62523;SDS011;53689;56.878;60.672;2022-12-29T05:20:21;22.83;;;13.48;;
62523;SDS011;53689;56.878;60.672;2022-12-29T05:22:49;22.02;;;13.63;;
62523;SDS011;53689;56.878;60.672;2022-12-29T05:25:17;22.92;;;14.25;;
62523;SDS011;53689;56.878;60.672;2022-12-29T05:28:18;19.70;;;12.80;;
62523;SDS011;53689;56.878;60.672;2022-12-29T05:30:56;19.42;;;12.50;;
62523;SDS011;53689;56.878;60.672;2022-12-29T05:33:24;20.10;;;12.93;;
62523;SDS011;53689;56.878;60.672;2022-12-29T05:35:51;19.52;;;13.63;;
62523;SDS011;53689;56.878;60.672;2022-12-29T05:38:20;20.10;;;11.85;;
62523;SDS011;53689;56.878;60.672;2022-12-29T05:40:48;17.77;;;12.55;;
62523;SDS011;53689;56.878;60.672;2022-12-29T05:43:40;21.98;;;11.80;;
62523;SDS011;53689;56.878;60.672;2022-12-29T05:46:26;17.88;;;11.73;;
62523;SDS011;53689;56.878;60.672;2022-12-29T05:49:12;20.33;;;12.35;;
62523;SDS011;53689;56.878;60.672;2022-12-29T05:51:55;18.92;;;12.30;;
62523;SDS011;53689;56.878;60.672;2022-12-29T05:54:23;20.17;;;13.15;;
62523;SDS011;53689;56.878;60.672;2022-12-29T05:56:51;17.65;;;11.82;;
62523;SDS011;53689;56.878;60.672;2022-12-29T05:59:21;19.80;;;12.57;;
62523;SDS011;53689;56.878;60.672;2022-12-29T06:01:49;20.13;;;11.27;;
62523;SDS011;53689;56.878;60.672;2022-12-29T06:04:17;21.33;;;12.85;;
62523;SDS011;53689;56.878;60.672;2022-12-29T06:06:47;18.75;;;11.85;;
62523;SDS011;53689;56.878;60.672;2022-12-29T06:09:33;19.95;;;12.35;;
62523;SDS011;53689;56.878;60.672;2022-12-29T06:12:02;20.67;;;12.57;;
62523;SDS011;53689;56.878;60.672;2022-12-29T06:14:32;19.13;;;12.85;;
62523;SDS011;53689;56.878;60.672;2022-12-29T06:17:02;23.83;;;13.82;;
62523;SDS011;53689;56.878;60.672;2022-12-29T06:19:31;22.38;;;12.52;;
62523;SDS011;53689;56.878;60.672;2022-12-29T06:21:58;15.70;;;11.82;;
62523;SDS011;53689;56.878;60.672;2022-12-29T06:24:27;18.48;;;12.55;;
62523;SDS011;53689;56.878;60.672;2022-12-29T06:26:55;18.10;;;12.00;;
62523;SDS011;53689;56.878;60.672;2022-12-29T06:29:22;17.17;;;12.02;;
62523;SDS011;53689;56.878;60.672;2022-12-29T06:31:51;20.80;;;11.80;;
62523;SDS011;53689;56.878;60.672;2022-12-29T06:34:19;20.88;;;12.30;;
62523;SDS011;53689;56.878;60.672;2022-12-29T06:36:46;19.52;;;12.30;;
62523;SDS011;53689;56.878;60.672;2022-12-29T06:39:14;19.58;;;12.13;;
62523;SDS011;53689;56.878;60.672;2022-12-29T06:41:51;17.92;;;11.93;;
62523;SDS011;53689;56.878;60.672;2022-12-29T06:44:39;16.80;;;11.63;;
62523;SDS011;53689;56.878;60.672;2022-12-29T06:49:38;20.08;;;11.50;;
62523;SDS011;53689;56.878;60.672;2022-12-29T06:52:05;20.00;;;12.90;;
62523;SDS011;53689;56.878;60.672;2022-12-29T06:54:38;19.08;;;11.90;;
62523;SDS011;53689;56.878;60.672;2022-12-29T06:57:06;18.33;;;11.60;;
62523;SDS011;53689;56.878;60.672;2022-12-29T06:59:34;19.98;;;13.05;;
62523;SDS011;53689;56.878;60.672;2022-12-29T07:02:01;21.65;;;11.93;;
62523;SDS011;53689;56.878;60.672;2022-12-29T07:04:31;17.95;;;11.77;;
62523;SDS011;53689;56.878;60.672;2022-12-29T07:06:59;23.10;;;12.68;;
62523;SDS011;53689;56.878;60.672;2022-12-29T07:09:27;29.55;;;14.25;;
62523;SDS011;53689;56.878;60.672;2022-12-29T07:11:55;24.35;;;12.70;;
62523;SDS011;53689;56.878;60.672;2022-12-29T07:14:22;18.58;;;11.75;;
62523;SDS011;53689;56.878;60.672;2022-12-29T07:16:50;22.58;;;12.30;;
62523;SDS011;53689;56.878;60.672;2022-12-29T07:19:18;22.98;;;12.30;;
62523;SDS011;53689;56.878;60.672;2022-12-29T07:21:48;25.83;;;12.65;;
62523;SDS011;53689;56.878;60.672;2022-12-29T07:24:15;21.65;;;12.20;;
62523;SDS011;53689;56.878;60.672;2022-12-29T07:26:43;19.50;;;12.32;;
62523;SDS011;53689;56.878;60.672;2022-12-29T07:29:11;21.33;;;12.52;;
62523;SDS011;53689;56.878;60.672;2022-12-29T07:31:38;23.50;;;12.38;;
62523;SDS011;53689;56.878;60.672;2022-12-29T07:34:07;22.15;;;11.85;;
62523;SDS011;53689;56.878;60.672;2022-12-29T07:36:35;27.97;;;14.00;;
62523;SDS011;53689;56.878;60.672;2022-12-29T07:39:04;20.23;;;12.10;;
62523;SDS011;53689;56.878;60.672;2022-12-29T07:41:32;21.20;;;12.15;;
62523;SDS011;53689;56.878;60.672;2022-12-29T07:44:01;25.63;;;11.90;;
62523;SDS011;53689;56.878;60.672;2022-12-29T07:46:37;16.33;;;10.30;;
62523;SDS011;53689;56.878;60.672;2022-12-29T07:49:23;20.55;;;11.88;;
62523;SDS011;53689;56.878;60.672;2022-12-29T07:51:50;18.23;;;11.75;;
62523;SDS011;53689;56.878;60.672;2022-12-29T07:54:19;24.65;;;12.73;;
62523;SDS011;53689;56.878;60.672;2022-12-29T07:56:47;20.33;;;11.40;;
62523;SDS011;53689;56.878;60.672;2022-12-29T07:59:14;21.75;;;11.43;;
62523;SDS011;53689;56.878;60.672;2022-12-29T08:01:42;20.67;;;12.65;;
62523;SDS011;53689;56.878;60.672;2022-12-29T08:04:10;18.85;;;11.63;;
62523;SDS011;53689;56.878;60.672;2022-12-29T08:06:38;24.50;;;12.52;;
62523;SDS011;53689;56.878;60.672;2022-12-29T08:09:06;22.58;;;12.88;;
62523;SDS011;53689;56.878;60.672;2022-12-29T08:11:45;20.55;;;12.48;;
62523;SDS011;53689;56.878;60.672;2022-12-29T08:14:12;21.35;;;12.85;;
62523;SDS011;53689;56.878;60.672;2022-12-29T08:16:40;18.40;;;12.07;;
62523;SDS011;53689;56.878;60.672;2022-12-29T08:19:09;20.65;;;12.57;;
62523;SDS011;53689;56.878;60.672;2022-12-29T08:21:38;21.23;;;13.13;;
62523;SDS011;53689;56.878;60.672;2022-12-29T08:24:06;20.10;;;12.68;;
62523;SDS011;53689;56.878;60.672;2022-12-29T08:26:34;25.23;;;12.97;;
62523;SDS011;53689;56.878;60.672;2022-12-29T08:29:03;19.83;;;12.40;;
62523;SDS011;53689;56.878;60.672;2022-12-29T08:31:31;21.60;;;12.50;;
62523;SDS011;53689;56.878;60.672;2022-12-29T08:33:59;22.45;;;11.13;;
62523;SDS011;53689;56.878;60.672;2022-12-29T08:36:26;17.77;;;10.40;;
62523;SDS011;53689;56.878;60.672;2022-12-29T08:38:54;15.77;;;10.18;;
62523;SDS011;53689;56.878;60.672;2022-12-29T08:41:21;16.75;;;10.75;;
62523;SDS011;53689;56.878;60.672;2022-12-29T08:43:49;18.30;;;11.52;;
62523;SDS011;53689;56.878;60.672;2022-12-29T08:46:18;17.95;;;10.77;;
62523;SDS011;53689;56.878;60.672;2022-12-29T08:48:46;19.15;;;10.73;;
62523;SDS011;53689;56.878;60.672;2022-12-29T08:51:14;16.98;;;9.93;;
62523;SDS011;53689;56.878;60.672;2022-12-29T08:53:47;16.50;;;10.43;;
62523;SDS011;53689;56.878;60.672;2022-12-29T08:56:14;14.90;;;10.05;;
62523;SDS011;53689;56.878;60.672;2022-12-29T08:58:48;16.23;;;10.35;;
62523;SDS011;53689;56.878;60.672;2022-12-29T09:01:17;18.75;;;10.23;;
62523;SDS011;53689;56.878;60.672;2022-12-29T09:03:47;18.10;;;11.23;;
62523;SDS011;53689;56.878;60.672;2022-12-29T09:06:35;17.80;;;11.23;;
62523;SDS011;53689;56.878;60.672;2022-12-29T09:09:06;17.90;;;10.98;;
62523;SDS011;53689;56.878;60.672;2022-12-29T09:11:34;17.38;;;11.02;;
62523;SDS011;53689;56.878;60.672;2022-12-29T09:14:01;19.90;;;9.90;;
62523;SDS011;53689;56.878;60.672;2022-12-29T09:16:30;17.25;;;10.25;;
62523;SDS011;53689;56.878;60.672;2022-12-29T09:18:58;17.10;;;10.50;;
62523;SDS011;53689;56.878;60.672;2022-12-29T09:21:26;15.75;;;10.75;;
62523;SDS011;53689;56.878;60.672;2022-12-29T09:23:54;19.77;;;10.65;;
62523;SDS011;53689;56.878;60.672;2022-12-29T09:26:22;21.45;;;11.80;;
62523;SDS011;53689;56.878;60.672;2022-12-29T09:28:49;14.50;;;10.50;;
62523;SDS011;53689;56.878;60.672;2022-12-29T09:31:17;19.42;;;10.65;;
62523;SDS011;53689;56.878;60.672;2022-12-29T09:33:46;20.90;;;12.27;;
62523;SDS011;53689;56.878;60.672;2022-12-29T09:36:14;18.30;;;11.70;;
62523;SDS011;53689;56.878;60.672;2022-12-29T09:38:41;16.50;;;10.68;;
62523;SDS011;53689;56.878;60.672;2022-12-29T09:41:11;22.73;;;12.32;;
62523;SDS011;53689;56.878;60.672;2022-12-29T09:43:48;20.40;;;11.73;;
62523;SDS011;53689;56.878;60.672;2022-12-29T09:46:27;16.88;;;10.75;;
62523;SDS011;53689;56.878;60.672;2022-12-29T09:49:00;17.60;;;10.90;;
62523;SDS011;53689;56.878;60.672;2022-12-29T09:51:35;21.60;;;11.17;;
62523;SDS011;53689;56.878;60.672;2022-12-29T09:54:12;17.65;;;10.73;;
62523;SDS011;53689;56.878;60.672;2022-12-29T09:56:50;22.20;;;11.98;;
62523;SDS011;53689;56.878;60.672;2022-12-29T09:59:20;19.67;;;11.38;;
62523;SDS011;53689;56.878;60.672;2022-12-29T10:01:53;21.38;;;9.95;;
62523;SDS011;53689;56.878;60.672;2022-12-29T10:04:28;17.08;;;9.05;;
62523;SDS011;53689;56.878;60.672;2022-12-29T10:06:57;17.02;;;10.38;;
62523;SDS011;53689;56.878;60.672;2022-12-29T10:09:53;18.42;;;10.45;;
62523;SDS011;53689;56.878;60.672;2022-12-29T10:12:34;20.15;;;11.05;;
62523;SDS011;53689;56.878;60.672;2022-12-29T10:15:18;20.13;;;10.45;;
62523;SDS011;53689;56.878;60.672;2022-12-29T10:18:12;19.05;;;10.75;;
62523;SDS011;53689;56.878;60.672;2022-12-29T10:20:55;18.00;;;10.10;;
62523;SDS011;53689;56.878;60.672;2022-12-29T10:23:28;19.52;;;10.50;;
62523;SDS011;53689;56.878;60.672;2022-12-29T10:26:00;19.50;;;11.50;;
62523;SDS011;53689;56.878;60.672;2022-12-29T10:28:34;17.20;;;10.55;;
62523;SDS011;53689;56.878;60.672;2022-12-29T10:31:06;14.52;;;10.00;;
62523;SDS011;53689;56.878;60.672;2022-12-29T10:33:41;20.02;;;11.05;;
62523;SDS011;53689;56.878;60.672;2022-12-29T10:36:13;17.88;;;9.60;;
62523;SDS011;53689;56.878;60.672;2022-12-29T10:38:45;15.02;;;9.63;;
62523;SDS011;53689;56.878;60.672;2022-12-29T10:41:21;15.57;;;9.20;;
62523;SDS011;53689;56.878;60.672;2022-12-29T10:43:53;16.00;;;10.05;;
62523;SDS011;53689;56.878;60.672;2022-12-29T10:46:25;16.75;;;9.40;;
62523;SDS011;53689;56.878;60.672;2022-12-29T10:48:55;15.50;;;9.45;;
62523;SDS011;53689;56.878;60.672;2022-12-29T10:51:25;14.85;;;9.65;;
62523;SDS011;53689;56.878;60.672;2022-12-29T10:53:57;14.05;;;9.43;;
62523;SDS011;53689;56.878;60.672;2022-12-29T10:56:32;18.55;;;10.43;;
62523;SDS011;53689;56.878;60.672;2022-12-29T10:59:05;20.75;;;10.68;;
62523;SDS011;53689;56.878;60.672;2022-12-29T11:01:43;19.88;;;10.95;;
62523;SDS011;53689;56.878;60.672;2022-12-29T11:04:26;16.27;;;10.25;;
62523;SDS011;53689;56.878;60.672;2022-12-29T11:07:04;15.32;;;9.68;;
62523;SDS011;53689;56.878;60.672;2022-12-29T11:09:41;19.50;;;10.10;;
62523;SDS011;53689;56.878;60.672;2022-12-29T11:12:18;18.63;;;9.98;;
62523;SDS011;53689;56.878;60.672;2022-12-29T11:14:51;19.52;;;10.02;;
62523;SDS011;53689;56.878;60.672;2022-12-29T11:17:29;16.52;;;10.68;;
62523;SDS011;53689;56.878;60.672;2022-12-29T11:19:57;15.13;;;10.02;;
62523;SDS011;53689;56.878;60.672;2022-12-29T11:22:26;19.10;;;10.00;;
62523;SDS011;53689;56.878;60.672;2022-12-29T11:25:04;20.52;;;11.52;;
62523;SDS011;53689;56.878;60.672;2022-12-29T11:27:37;21.05;;;9.80;;
62523;SDS011;53689;56.878;60.672;2022-12-29T11:30:11;14.20;;;9.60;;
62523;SDS011;53689;56.878;60.672;2022-12-29T11:32:50;18.27;;;10.90;;
62523;SDS011;53689;56.878;60.672;2022-12-29T11:35:29;18.33;;;10.80;;
62523;SDS011;53689;56.878;60.672;2022-12-29T11:38:01;13.30;;;9.32;;
62523;SDS011;53689;56.878;60.672;2022-12-29T11:40:30;14.77;;;9.20;;
62523;SDS011;53689;56.878;60.672;2022-12-29T11:43:04;14.70;;;9.50;;
62523;SDS011;53689;56.878;60.672;2022-12-29T11:45:34;18.85;;;9.98;;
62523;SDS011;53689;56.878;60.672;2022-12-29T11:48:06;16.35;;;9.63;;
62523;SDS011;53689;56.878;60.672;2022-12-29T11:50:37;18.52;;;10.60;;
62523;SDS011;53689;56.878;60.672;2022-12-29T11:53:13;15.80;;;8.90;;
62523;SDS011;53689;56.878;60.672;2022-12-29T11:55:52;14.63;;;9.43;;
62523;SDS011;53689;56.878;60.672;2022-12-29T11:58:27;28.17;;;16.23;;
62523;SDS011;53689;56.878;60.672;2022-12-29T12:00:56;40.03;;;27.85;;
62523;SDS011;53689;56.878;60.672;2022-12-29T12:03:27;22.42;;;13.80;;
62523;SDS011;53689;56.878;60.672;2022-12-29T12:05:58;20.67;;;13.07;;
62523;SDS011;53689;56.878;60.672;2022-12-29T12:08:33;19.10;;;14.27;;
62523;SDS011;53689;56.878;60.672;2022-12-29T12:11:06;18.25;;;10.75;;
62523;SDS011;53689;56.878;60.672;2022-12-29T12:13:39;17.33;;;10.25;;
62523;SDS011;53689;56.878;60.672;2022-12-29T12:16:13;16.35;;;9.38;;
62523;SDS011;53689;56.878;60.672;2022-12-29T12:18:49;17.02;;;9.45;;
62523;SDS011;53689;56.878;60.672;2022-12-29T12:21:20;19.95;;;9.95;;
62523;SDS011;53689;56.878;60.672;2022-12-29T12:26:52;15.23;;;9.48;;
62523;SDS011;53689;56.878;60.672;2022-12-29T12:29:29;16.70;;;9.52;;
62523;SDS011;53689;56.878;60.672;2022-12-29T12:32:04;16.60;;;9.35;;
62523;SDS011;53689;56.878;60.672;2022-12-29T12:34:41;17.38;;;9.75;;
62523;SDS011;53689;56.878;60.672;2022-12-29T12:37:18;17.67;;;9.07;;
62523;SDS011;53689;56.878;60.672;2022-12-29T12:43:05;19.52;;;9.93;;
62523;SDS011;53689;56.878;60.672;2022-12-29T12:45:51;17.63;;;9.52;;
62523;SDS011;53689;56.878;60.672;2022-12-29T12:48:34;25.83;;;9.50;;
62523;SDS011;53689;56.878;60.672;2022-12-29T12:51:19;22.95;;;9.02;;
62523;SDS011;53689;56.878;60.672;2022-12-29T12:54:01;21.38;;;10.73;;
62523;SDS011;53689;56.878;60.672;2022-12-29T12:56:50;21.77;;;10.10;;
62523;SDS011;53689;56.878;60.672;2022-12-29T12:59:30;17.50;;;9.87;;
62523;SDS011;53689;56.878;60.672;2022-12-29T13:02:12;23.65;;;11.55;;
62523;SDS011;53689;56.878;60.672;2022-12-29T13:05:04;19.17;;;9.30;;
62523;SDS011;53689;56.878;60.672;2022-12-29T13:07:58;16.50;;;9.38;;
62523;SDS011;53689;56.878;60.672;2022-12-29T13:10:41;19.90;;;9.65;;
62523;SDS011;53689;56.878;60.672;2022-12-29T13:13:32;16.00;;;8.98;;
62523;SDS011;53689;56.878;60.672;2022-12-29T13:16:09;17.73;;;10.10;;
62523;SDS011;53689;56.878;60.672;2022-12-29T13:19:00;16.73;;;8.85;;
62523;SDS011;53689;56.878;60.672;2022-12-29T13:21:39;16.08;;;9.25;;
62523;SDS011;53689;56.878;60.672;2022-12-29T13:24:28;16.83;;;8.35;;
62523;SDS011;53689;56.878;60.672;2022-12-29T13:27:09;18.20;;;8.10;;
62523;SDS011;53689;56.878;60.672;2022-12-29T13:29:46;18.60;;;9.25;;
62523;SDS011;53689;56.878;60.672;2022-12-29T13:32:21;15.13;;;8.65;;
62523;SDS011;53689;56.878;60.672;2022-12-29T13:34:59;19.70;;;8.63;;
62523;SDS011;53689;56.878;60.672;2022-12-29T13:37:42;17.05;;;8.80;;
62523;SDS011;53689;56.878;60.672;2022-12-29T13:40:15;19.05;;;9.15;;
62523;SDS011;53689;56.878;60.672;2022-12-29T13:42:46;15.88;;;8.70;;
62523;SDS011;53689;56.878;60.672;2022-12-29T13:45:16;15.10;;;9.07;;
62523;SDS011;53689;56.878;60.672;2022-12-29T13:47:49;19.08;;;8.30;;
62523;SDS011;53689;56.878;60.672;2022-12-29T13:50:24;18.92;;;9.02;;
62523;SDS011;53689;56.878;60.672;2022-12-29T13:52:55;20.45;;;8.90;;
62523;SDS011;53689;56.878;60.672;2022-12-29T13:55:31;18.15;;;9.43;;
62523;SDS011;53689;56.878;60.672;2022-12-29T13:58:05;17.83;;;9.38;;
62523;SDS011;53689;56.878;60.672;2022-12-29T14:00:45;19.40;;;8.73;;
62523;SDS011;53689;56.878;60.672;2022-12-29T14:06:12;16.83;;;8.07;;
62523;SDS011;53689;56.878;60.672;2022-12-29T14:08:44;20.27;;;8.73;;
62523;SDS011;53689;56.878;60.672;2022-12-29T14:11:24;15.35;;;8.65;;
62523;SDS011;53689;56.878;60.672;2022-12-29T14:14:13;23.15;;;10.55;;
62523;SDS011;53689;56.878;60.672;2022-12-29T14:16:48;15.02;;;8.52;;
62523;SDS011;53689;56.878;60.672;2022-12-29T14:19:17;15.18;;;8.23;;
62523;SDS011;53689;56.878;60.672;2022-12-29T14:21:51;19.00;;;8.40;;
62523;SDS011;53689;56.878;60.672;2022-12-29T14:24:38;15.65;;;8.30;;
62523;SDS011;53689;56.878;60.672;2022-12-29T14:33:27;14.55;;;8.63;;
62523;SDS011;53689;56.878;60.672;2022-12-29T14:35:56;19.60;;;8.27;;
62523;SDS011;53689;56.878;60.672;2022-12-29T14:38:45;13.75;;;7.70;;
62523;SDS011;53689;56.878;60.672;2022-12-29T14:41:18;13.48;;;7.88;;
62523;SDS011;53689;56.878;60.672;2022-12-29T14:43:54;13.40;;;8.20;;
62523;SDS011;53689;56.878;60.672;2022-12-29T14:46:41;13.35;;;8.00;;
62523;SDS011;53689;56.878;60.672;2022-12-29T14:49:16;12.73;;;7.95;;
62523;SDS011;53689;56.878;60.672;2022-12-29T14:51:47;16.17;;;7.85;;
62523;SDS011;53689;56.878;60.672;2022-12-29T14:57:18;16.17;;;7.55;;
62523;SDS011;53689;56.878;60.672;2022-12-29T14:59:53;15.75;;;8.10;;
62523;SDS011;53689;56.878;60.672;2022-12-29T15:02:24;15.05;;;8.48;;
62523;SDS011;53689;56.878;60.672;2022-12-29T15:05:01;13.13;;;7.45;;
62523;SDS011;53689;56.878;60.672;2022-12-29T15:07:30;13.40;;;7.32;;
62523;SDS011;53689;56.878;60.672;2022-12-29T15:10:04;16.60;;;8.05;;
62523;SDS011;53689;56.878;60.672;2022-12-29T15:12:40;15.18;;;8.50;;
62523;SDS011;53689;56.878;60.672;2022-12-29T15:15:19;16.00;;;7.18;;
62523;SDS011;53689;56.878;60.672;2022-12-29T15:17:49;11.80;;;6.90;;